createdAt,value
2023-03-11T00:02:03.390Z,44.91
2023-03-11T00:06:03.488Z,44.96
2023-03-11T00:10:03.588Z,47.22
2023-03-11T00:14:03.710Z,63.37
2023-03-11T00:18:03.836Z,92.51
2023-03-11T00:22:03.908Z,92.97
2023-03-11T00:26:04.070Z,124.85
2023-03-11T00:30:04.154Z,128.65
2023-03-11T00:34:04.273Z,112.21
2023-03-11T00:38:04.415Z,88.01
2023-03-11T00:42:04.598Z,88.55
2023-03-11T00:46:04.664Z,89.65
2023-03-11T00:50:04.774Z,91.07
2023-03-11T00:54:04.924Z,105.86
2023-03-11T00:58:05.037Z,102.01
2023-03-11T01:02:05.185Z,103.66
2023-03-11T01:06:05.288Z,101.33
2023-03-11T01:10:05.405Z,103.18
2023-03-11T01:14:05.567Z,107.37
2023-03-11T01:18:05.709Z,103.25
2023-03-11T01:22:05.868Z,100.95
2023-03-11T01:26:05.946Z,104.50
2023-03-11T01:30:06.078Z,105.41
2023-03-11T01:34:06.252Z,99.41
2023-03-11T01:38:06.279Z,101.51
2023-03-11T01:42:06.400Z,109.51
2023-03-11T01:46:06.543Z,113.36
2023-03-11T01:50:06.606Z,107.88
2023-03-11T01:54:06.710Z,109.12
2023-03-11T01:58:06.891Z,106.63
2023-03-11T02:02:07.137Z,104.34
2023-03-11T02:06:07.145Z,96.86
2023-03-11T02:10:07.340Z,123.41
2023-03-11T02:14:07.361Z,107.61
2023-03-11T02:18:07.492Z,96.17
2023-03-11T02:22:07.602Z,93.47
2023-03-11T02:26:07.746Z,94.89
2023-03-11T02:30:07.820Z,92.49
2023-03-11T02:34:07.946Z,91.42
2023-03-11T02:38:08.087Z,95.80
2023-03-11T02:42:08.154Z,98.97
2023-03-11T02:46:08.301Z,95.18
2023-03-11T02:50:08.388Z,112.37
2023-03-11T02:54:08.575Z,178.40
2023-03-11T02:58:08.658Z,206.36
2023-03-11T03:02:08.828Z,207.38
2023-03-11T03:06:08.896Z,202.92
2023-03-11T03:10:09.023Z,203.83
2023-03-11T03:14:09.197Z,192.67
2023-03-11T03:18:09.344Z,208.13
2023-03-11T03:22:09.462Z,193.75
2023-03-11T03:26:09.555Z,195.93
2023-03-11T03:30:09.711Z,215.62
2023-03-11T03:34:09.846Z,207.47
2023-03-11T03:38:09.940Z,209.42
2023-03-11T03:42:10.037Z,211.86
2023-03-11T03:46:10.251Z,196.10
2023-03-11T03:50:10.371Z,209.02
2023-03-11T03:54:10.547Z,202.35
2023-03-11T03:58:10.660Z,185.88
2023-03-11T04:02:10.814Z,181.53
2023-03-11T04:06:10.884Z,174.62
2023-03-11T04:10:11.035Z,190.35
2023-03-11T04:14:11.114Z,202.64
2023-03-11T04:18:11.208Z,187.86
2023-03-11T04:22:11.349Z,201.14
2023-03-11T04:26:11.479Z,211.95
2023-03-11T04:30:11.593Z,191.34
2023-03-11T04:34:11.782Z,198.28
2023-03-11T04:38:11.982Z,188.09
2023-03-11T04:42:12.071Z,196.21
2023-03-11T04:46:12.274Z,187.01
2023-03-11T04:50:12.348Z,193.02
2023-03-11T04:54:12.443Z,206.29
2023-03-11T04:58:12.605Z,182.81
2023-03-11T05:02:13.061Z,195.86
2023-03-11T05:06:12.985Z,182.92
2023-03-11T05:10:13.004Z,183.91
2023-03-11T05:14:13.112Z,188.18
2023-03-11T05:18:13.238Z,210.08
2023-03-11T05:22:13.330Z,194.20
2023-03-11T05:26:13.505Z,183.91
2023-03-11T05:30:13.589Z,178.33
2023-03-11T05:34:13.698Z,174.73
2023-03-11T05:38:13.799Z,184.24
2023-03-11T05:42:13.942Z,220.42
2023-03-11T05:46:14.157Z,182.10
2023-03-11T05:50:14.153Z,215.19
2023-03-11T05:54:14.280Z,197.63
2023-03-11T05:58:14.435Z,205.15
2023-03-11T06:02:14.512Z,181.78
2023-03-11T06:06:14.652Z,187.97
2023-03-11T06:10:14.770Z,202.63
2023-03-11T06:14:14.922Z,174.75
2023-03-11T06:18:15.002Z,219.78
2023-03-11T06:22:15.204Z,204.87
2023-03-11T06:26:15.344Z,204.28
2023-03-11T06:30:15.467Z,207.89
2023-03-11T06:34:15.581Z,186.92
2023-03-11T06:38:15.737Z,225.64
2023-03-11T06:42:15.841Z,224.72
2023-03-11T06:46:16.029Z,195.37
2023-03-11T06:50:16.089Z,215.07
2023-03-11T06:54:16.219Z,203.33
2023-03-11T06:58:16.330Z,205.99
2023-03-11T07:02:16.462Z,236.54
2023-03-11T07:06:16.580Z,244.91
2023-03-11T07:10:16.813Z,208.60
2023-03-11T07:14:16.806Z,192.85
2023-03-11T07:18:16.945Z,190.17
2023-03-11T07:22:17.060Z,170.68
2023-03-11T07:26:17.134Z,179.90
2023-03-11T07:30:17.217Z,195.42
2023-03-11T07:34:17.644Z,198.68
2023-03-11T07:38:17.997Z,230.39
2023-03-11T07:42:17.624Z,207.71
2023-03-11T07:46:17.805Z,198.91
2023-03-11T07:50:17.932Z,201.48
2023-03-11T07:54:18.017Z,193.12
2023-03-11T07:58:18.252Z,183.34
2023-03-11T08:02:18.342Z,191.28
2023-03-11T08:06:18.482Z,168.95
2023-03-11T08:10:18.584Z,164.23
2023-03-11T08:14:18.674Z,176.00
2023-03-11T08:18:18.790Z,189.02
2023-03-11T08:22:18.926Z,197.59
2023-03-11T08:26:18.985Z,222.58
2023-03-11T08:30:19.180Z,184.59
2023-03-11T08:34:19.248Z,269.89
2023-03-11T08:38:19.382Z,211.06
2023-03-11T08:42:19.528Z,173.57
2023-03-11T08:46:19.673Z,186.09
2023-03-11T08:50:19.791Z,186.18
2023-03-11T08:54:19.872Z,194.16
2023-03-11T08:58:20.015Z,182.25
2023-03-11T09:02:20.158Z,189.36
2023-03-11T09:06:20.249Z,197.14
2023-03-11T09:10:20.353Z,198.63
2023-03-11T09:14:20.461Z,181.14
2023-03-11T09:18:20.549Z,175.05
2023-03-11T09:22:20.694Z,187.89
2023-03-11T09:26:20.783Z,161.25
2023-03-11T09:30:20.868Z,149.08
2023-03-11T09:34:21.002Z,155.53
2023-03-11T09:38:21.162Z,171.79
2023-03-11T09:42:21.298Z,149.43
2023-03-11T09:46:21.454Z,155.28
2023-03-11T09:50:21.520Z,152.91
2023-03-11T09:54:21.560Z,148.49
2023-03-11T09:58:21.693Z,159.53
2023-03-11T10:02:21.941Z,146.68
2023-03-11T10:06:21.950Z,153.48
2023-03-11T10:10:22.067Z,152.29
2023-03-11T10:14:22.124Z,137.73
2023-03-11T10:18:22.219Z,138.68
2023-03-11T10:22:22.359Z,124.81
2023-03-11T10:26:22.443Z,137.43
2023-03-11T10:30:22.621Z,130.73
2023-03-11T10:34:22.748Z,118.86
2023-03-11T10:38:22.808Z,135.02
2023-03-11T10:42:22.976Z,110.49
2023-03-11T10:46:23.072Z,126.22
2023-03-11T10:50:23.161Z,112.59
2023-03-11T10:54:23.289Z,127.21
2023-03-11T10:58:23.447Z,127.05
2023-03-11T11:02:23.568Z,124.52
2023-03-11T11:06:23.854Z,131.28
2023-03-11T11:10:23.804Z,129.05
2023-03-11T11:14:23.912Z,130.98
2023-03-11T11:18:23.996Z,158.61
2023-03-11T11:22:24.151Z,171.95
2023-03-11T11:26:24.243Z,142.01
2023-03-11T11:30:24.356Z,143.29
2023-03-11T11:34:24.399Z,158.57
2023-03-11T11:38:24.517Z,149.24
2023-03-11T11:42:24.659Z,140.43
2023-03-11T11:46:24.862Z,145.47
2023-03-11T11:50:24.934Z,153.77
2023-03-11T11:54:25.027Z,150.79
2023-03-11T11:58:25.093Z,149.77
2023-03-11T12:02:25.181Z,167.36
2023-03-11T12:06:25.254Z,145.14
2023-03-11T12:10:25.353Z,146.67
2023-03-11T12:14:25.479Z,165.40
2023-03-11T12:18:25.642Z,167.41
2023-03-11T12:22:25.760Z,165.62
2023-03-11T12:26:25.848Z,153.98
2023-03-11T12:30:25.984Z,173.22
2023-03-11T12:34:26.060Z,173.16
2023-03-11T12:38:26.191Z,153.59
2023-03-11T12:42:26.338Z,183.82
2023-03-11T12:46:26.486Z,184.49
2023-03-11T12:50:26.552Z,194.83
2023-03-11T12:54:26.715Z,202.87
2023-03-11T12:58:26.885Z,191.02
2023-03-11T13:02:27.014Z,188.08
2023-03-11T13:06:27.101Z,214.09
2023-03-11T13:10:27.261Z,227.92
2023-03-11T13:14:27.428Z,202.80
2023-03-11T13:18:27.530Z,211.81
2023-03-11T13:22:27.719Z,206.04
2023-03-11T13:26:27.803Z,198.92
2023-03-11T13:30:28.006Z,221.77
2023-03-11T13:34:28.137Z,230.01
2023-03-11T13:38:28.187Z,227.66
2023-03-11T13:42:28.356Z,217.66
2023-03-11T13:46:28.408Z,203.38
2023-03-11T13:50:28.487Z,190.14
2023-03-11T13:54:28.597Z,194.49
2023-03-11T13:58:28.728Z,198.55
2023-03-11T14:02:28.826Z,226.11
2023-03-11T14:06:28.984Z,215.02
2023-03-11T14:10:29.066Z,199.39
2023-03-11T14:14:29.081Z,186.33
2023-03-11T14:18:29.230Z,195.13
2023-03-11T14:22:29.337Z,192.65
2023-03-11T14:26:29.458Z,206.80
2023-03-11T14:30:29.545Z,237.41
2023-03-11T14:34:29.685Z,195.53
2023-03-11T14:38:29.859Z,187.83
2023-03-11T14:42:29.941Z,190.90
2023-03-11T14:46:30.070Z,198.24
2023-03-11T14:50:30.193Z,186.89
2023-03-11T14:54:30.288Z,209.97
2023-03-11T14:58:30.435Z,233.08
2023-03-11T15:02:30.546Z,176.62
2023-03-11T15:06:30.670Z,171.87
2023-03-11T15:10:30.760Z,158.11
2023-03-11T15:14:30.852Z,155.85
2023-03-11T15:18:30.987Z,158.62
2023-03-11T15:22:31.124Z,168.02
2023-03-11T15:26:31.234Z,155.81
2023-03-11T15:30:31.452Z,163.53
2023-03-11T15:34:31.514Z,150.08
2023-03-11T15:38:31.598Z,147.60
2023-03-11T15:42:31.689Z,140.15
2023-03-11T15:46:31.925Z,145.91
2023-03-11T15:50:46.743Z,166.02
2023-03-11T15:54:32.950Z,153.34
2023-03-11T15:58:32.088Z,176.91
2023-03-11T16:02:31.881Z,177.20
2023-03-11T16:06:31.900Z,146.04
2023-03-11T16:10:32.046Z,136.09
2023-03-11T16:14:32.146Z,147.85
2023-03-11T16:18:32.268Z,128.46
2023-03-11T16:22:32.413Z,152.05
2023-03-11T16:26:32.712Z,147.55
2023-03-11T16:30:32.727Z,143.47
2023-03-11T16:34:32.754Z,137.62
2023-03-11T16:38:32.870Z,136.77
2023-03-11T16:42:33.045Z,165.00
2023-03-11T16:46:33.264Z,190.78
2023-03-11T16:50:34.246Z,168.28
2023-03-11T16:54:33.484Z,178.14
2023-03-11T16:58:33.584Z,167.71
2023-03-11T17:02:33.792Z,168.11
2023-03-11T17:06:33.901Z,244.20
2023-03-11T17:10:34.041Z,186.40
2023-03-11T17:14:34.199Z,209.73
2023-03-11T17:18:34.350Z,169.59
2023-03-11T17:22:34.480Z,208.00
2023-03-11T17:26:34.582Z,156.94
2023-03-11T17:30:38.845Z,155.32
2023-03-11T17:34:34.677Z,144.44
2023-03-11T17:38:34.643Z,183.79
2023-03-11T17:42:34.594Z,133.31
2023-03-11T17:46:34.571Z,149.29
2023-03-11T17:50:34.541Z,150.95
2023-03-11T17:54:34.507Z,130.86
2023-03-11T17:58:34.443Z,167.73
2023-03-11T18:02:34.449Z,168.56
2023-03-11T18:06:34.432Z,183.47
2023-03-11T18:10:37.230Z,175.37
2023-03-11T18:14:34.458Z,229.05
2023-03-11T18:18:34.444Z,200.12
2023-03-11T18:22:35.476Z,222.13
2023-03-11T18:26:34.347Z,227.17
2023-03-11T18:30:34.295Z,208.98
2023-03-11T18:34:34.287Z,260.75
2023-03-11T18:38:34.238Z,269.15
2023-03-11T18:42:34.244Z,238.53
2023-03-11T18:46:34.210Z,252.43
2023-03-11T18:50:34.196Z,220.99
2023-03-11T18:54:34.103Z,182.74
2023-03-11T18:58:34.164Z,252.76
2023-03-11T19:02:34.305Z,301.13
2023-03-11T19:06:34.440Z,304.03
2023-03-11T19:10:34.629Z,248.46
2023-03-11T19:14:34.719Z,249.50
2023-03-11T19:18:34.816Z,246.85
2023-03-11T19:22:35.005Z,241.19
2023-03-11T19:26:44.437Z,247.96
2023-03-11T19:30:36.198Z,246.59
2023-03-11T19:34:35.066Z,243.19
2023-03-11T19:38:35.035Z,242.88
2023-03-11T19:42:35.238Z,247.49
2023-03-11T19:46:35.417Z,252.16
2023-03-11T19:50:35.392Z,233.84
2023-03-11T19:54:35.491Z,240.89
2023-03-11T19:58:35.697Z,236.86
2023-03-11T20:02:35.857Z,239.02
2023-03-11T20:06:36.028Z,235.21
2023-03-11T20:10:36.120Z,253.79
2023-03-11T20:14:36.169Z,239.72
2023-03-11T20:18:36.257Z,241.52
2023-03-11T20:22:36.438Z,238.16
2023-03-11T20:26:36.413Z,252.63
2023-03-11T20:30:36.552Z,233.15
2023-03-11T20:34:36.751Z,220.60
2023-03-11T20:38:36.898Z,231.13
2023-03-11T20:42:36.926Z,234.32
2023-03-11T20:46:37.095Z,208.05
2023-03-11T20:50:37.177Z,208.59
2023-03-11T20:54:37.371Z,205.95
2023-03-11T20:58:37.373Z,194.34
2023-03-11T21:02:37.740Z,182.72
2023-03-11T21:06:37.683Z,180.65
2023-03-11T21:10:37.817Z,196.69
2023-03-11T21:14:38.080Z,187.65
2023-03-11T21:18:38.068Z,193.03
2023-03-11T21:22:38.151Z,192.05
2023-03-11T21:26:38.216Z,188.90
2023-03-11T21:30:38.238Z,189.75
2023-03-11T21:34:38.347Z,175.55
2023-03-11T21:38:38.586Z,177.72
2023-03-11T21:42:38.720Z,178.99
2023-03-11T21:46:38.879Z,175.50
2023-03-11T21:50:38.868Z,180.46
2023-03-11T21:54:38.952Z,193.93
2023-03-11T21:58:39.164Z,200.07
2023-03-11T22:02:39.245Z,213.12
2023-03-11T22:06:39.473Z,233.65
2023-03-11T22:10:39.455Z,224.67
2023-03-11T22:14:39.678Z,234.33
2023-03-11T22:18:39.878Z,236.10
2023-03-11T22:22:39.957Z,219.71
2023-03-11T22:26:39.961Z,220.41
2023-03-11T22:30:40.132Z,212.08
2023-03-11T22:34:40.207Z,204.16
2023-03-11T22:38:42.108Z,199.81
2023-03-11T22:42:40.527Z,202.14
2023-03-11T22:46:40.644Z,189.35
2023-03-11T22:50:40.756Z,214.86
2023-03-11T22:54:40.956Z,195.59
2023-03-11T22:58:40.967Z,202.17
2023-03-11T23:02:41.282Z,210.03
2023-03-11T23:06:41.384Z,203.41
2023-03-11T23:10:41.539Z,215.93
2023-03-11T23:14:45.275Z,212.84
2023-03-11T23:18:41.557Z,223.48
2023-03-11T23:22:41.529Z,199.80
2023-03-11T23:26:41.520Z,200.09
2023-03-11T23:30:41.559Z,203.49
2023-03-11T23:34:41.430Z,211.64
2023-03-11T23:38:41.411Z,197.09
2023-03-11T23:42:41.377Z,220.10
2023-03-11T23:46:41.318Z,204.67
2023-03-11T23:50:41.290Z,224.14
2023-03-11T23:54:41.278Z,222.28
2023-03-11T23:58:41.218Z,251.41
